Pershing, Oklahoma
Current Conditions -  °F | °C
As of 6:53 PM on Saturday 22 Nov 2014 (Local Time) from KBVO Reporting Station
Broken Clouds Broken Clouds  
Wind Chill: 56°   Ceiling: 1300
Heat Index: 56°   Visibility: 10mi
Dew Point: 52°   Wind: 12mph
Humidity: 87%   Direction: 170°S
Pressure: 29.81"   Gusts: 18mph
Location:  36.5242°N, 96.1387°W
Report Text: KBVO 230053Z AUTO 17010G16KT 10SM BKN013 13/11 A2981 RMK AO2 SLP089 T01330111
Loading
Personal Weather Stations






























Interactive Weather Map New forecast layout! Learn more

10-Day Weather Forecast

Advertisements
Track Severe Weather on mobile